Pilot No 7 — WDJ7349 — position and weather

sailwx.info

Track history (hours):
 
Tides and Currents Weather Stations Pressure Air Temp Water Temp Dewpoint Dewpoint Depression Visibility Wind Speed Wind Dir Waves Ship Positions

Pilot No 7

Owner: P.E.P. Inc., FORT LAUDERDALE, FL. More information available from US FCC via Universal Licensing System and Coast Guard Vessel Documentation Center.

Last reported at 2018-Jun-22 02:00 UTC. Time now 2018-Jun-22 01:59 UTC.
Position N 26°06' W 080°07'.

Length 15 m; draft 1.5 m.

Type: Pilot. MMSI: 368005850.

Date/timePositionNaut miles runAvg speedWind from/ knotsBaromVisibWave heightAir tempDewpointWater temp
2018-Jun-22 02:00N 26°06' W 080°07'1 1.3
2018-Jun-22 01:31N 26°06' W 080°06'1 1.3
2018-Jun-22 01:00N 26°06' W 080°06'2 3.1
2018-Jun-22 00:30N 26°06' W 080°07'1 2.7
2018-Jun-22 00:01N 26°06' W 080°06'1 2.2
2018-Jun-21 23:30N 26°06' W 080°07'0 0.4
2018-Jun-21 23:00N 26°06' W 080°07'1 1.9
2018-Jun-21 22:30N 26°05' W 080°07'2 4.3
2018-Jun-21 22:00N 26°05' W 080°05'1 2.2
2018-Jun-21 21:31N 26°06' W 080°05'2 4.3
2018-Jun-21 21:01N 26°06' W 080°07'2 3.5
2018-Jun-21 20:30N 26°06' W 080°05'0 0.3
2018-Jun-21 20:00N 26°06' W 080°05'2 3.7
2018-Jun-21 19:30N 26°06' W 080°07'1 1.3
2018-Jun-21 19:00N 26°06' W 080°07'2 3.1
2018-Jun-21 18:31N 26°06' W 080°05'2 3.5
2018-Jun-21 18:01N 26°05' W 080°07'0 0.2
2018-Jun-21 17:31N 26°06' W 080°07'0 0.1
2018-Jun-21 17:01N 26°06' W 080°07'1 2.5
2018-Jun-21 16:30N 26°06' W 080°06'1 2.3
2018-Jun-21 16:00N 26°05' W 080°07'1 2.1
2018-Jun-21 15:29N 26°06' W 080°07'0 0.0
2018-Jun-21 14:54N 26°06' W 080°07'0 0.0
2018-Jun-21 14:29N 26°06' W 080°07'0 0.0
2018-Jun-21 14:00N 26°06' W 080°07'0 0.0
2018-Jun-21 13:29N 26°06' W 080°07'1 2.1
2018-Jun-21 13:00N 26°06' W 080°06'1 1.0
2018-Jun-21 12:30N 26°05' W 080°07'1 1.1
2018-Jun-21 12:00N 26°06' W 080°06'1 1.4
2018-Jun-21 11:31N 26°06' W 080°07'0 0.5
2018-Jun-21 11:00N 26°06' W 080°07'4 8.3
2018-Jun-21 10:30N 26°06' W 080°03'4 8.3
2018-Jun-21 10:00N 26°05' W 080°07'510.0
2018-Jun-21 09:30N 26°06' W 080°02'4 7.8
2018-Jun-21 09:00N 26°06' W 080°06'1 2.2
2018-Jun-21 08:30N 26°05' W 080°07'1 1.7
2018-Jun-21 08:00N 26°06' W 080°07'1 2.4
2018-Jun-21 07:30N 26°04' W 080°07'5 9.2
2018-Jun-21 07:00N 26°05' W 080°02'4 8.1
2018-Jun-21 06:31N 26°06' W 080°06'0 0.5
2018-Jun-21 06:00N 26°06' W 080°07'0 0.8
2018-Jun-21 05:30N 26°06' W 080°07'0 0.5
2018-Jun-21 05:00N 26°06' W 080°07'1 2.4
2018-Jun-21 04:30N 26°04' W 080°07'1 2.5
2018-Jun-21 04:00N 26°06' W 080°07'1 2.0
2018-Jun-21 03:30N 26°05' W 080°07'2 1.6
2018-Jun-21 02:30N 26°06' W 080°07'0 0.0
2018-Jun-21 01:52N 26°06' W 080°07'0 0.0
2018-Jun-21 01:28N 26°06' W 080°07'0 0.0
2018-Jun-21 01:00N 26°06' W 080°07'0 0.0
2018-Jun-21 00:09N 26°06' W 080°07'0 0.0
2018-Jun-20 23:53N 26°06' W 080°07'0 0.0
2018-Jun-20 23:29N 26°06' W 080°07'0 0.0
2018-Jun-20 22:56N 26°06' W 080°07'0 0.0
2018-Jun-20 22:27N 26°06' W 080°07'0 0.0
2018-Jun-20 22:00N 26°06' W 080°07'0 0.0
2018-Jun-20 13:51N 26°06' W 080°07'0 0.0
2018-Jun-20 11:20N 26°06' W 080°07'2 5.1
2018-Jun-20 11:00N 26°06' W 080°06'1 2.7
2018-Jun-20 10:30N 26°05' W 080°07'0 0.3
2018-Jun-20 10:00N 26°05' W 080°07'0 0.4
2018-Jun-20 09:30N 26°05' W 080°07'2 4.3
2018-Jun-20 09:00N 26°05' W 080°05'2 4.1
2018-Jun-20 08:30N 26°05' W 080°07'3 5.8
2018-Jun-20 08:01N 26°06' W 080°04'3 6.4
2018-Jun-20 07:30N 26°04' W 080°07'3 5.5
2018-Jun-20 07:00N 26°06' W 080°04'2 4.7
2018-Jun-20 06:30N 26°05' W 080°07'2 5.0
2018-Jun-20 06:00N 26°06' W 080°04'3 5.8
2018-Jun-20 05:30N 26°05' W 080°07'1 2.1
2018-Jun-20 05:00N 26°05' W 080°07'2 3.3
2018-Jun-20 04:30N 26°06' W 080°07'0 0.0
2018-Jun-19 20:26N 26°06' W 080°07'0 0.0
2018-Jun-19 19:59N 26°06' W 080°07'0 0.0
2018-Jun-19 19:28N 26°06' W 080°07'0 0.0
2018-Jun-19 18:59N 26°06' W 080°07'0 0.4
2018-Jun-19 18:30N 26°06' W 080°07'0 0.4
2018-Jun-19 18:00N 26°06' W 080°07'0 0.1
2018-Jun-19 13:02N 26°06' W 080°07'0 0.0
2018-Jun-19 06:47N 26°06' W 080°07'2 5.8
2018-Jun-19 06:30N 26°05' W 080°07'2 3.6
2018-Jun-19 06:00N 26°06' W 080°05'2 3.4
2018-Jun-19 05:30N 26°05' W 080°07'1 2.1
2018-Jun-19 05:00N 26°04' W 080°07'0 0.3
2018-Jun-19 04:30N 26°04' W 080°07'2 3.0
2018-Jun-19 04:00N 26°06' W 080°06'1 1.2
2018-Jun-19 03:30N 26°06' W 080°07'1 1.6
2018-Jun-19 03:00N 26°06' W 080°07'0 0.0
2018-Jun-19 02:27N 26°06' W 080°07'0 0.0
2018-Jun-19 02:00N 26°06' W 080°07'0 0.0
2018-Jun-19 01:30N 26°06' W 080°07'0 0.0
2018-Jun-19 01:00N 26°06' W 080°07'0 0.0
2018-Jun-19 00:30N 26°06' W 080°07'0 0.0
2018-Jun-19 00:00N 26°06' W 080°07'1 2.4
2018-Jun-18 23:30N 26°05' W 080°07'1 2.4
2018-Jun-18 23:01N 26°04' W 080°07'2 3.6
2018-Jun-18 22:31N 26°06' W 080°07'1 1.1
2018-Jun-18 22:00N 26°06' W 080°07'2 3.5
2018-Jun-18 21:30N 26°06' W 080°05'2 4.1
2018-Jun-18 21:00N 26°05' W 080°07'1 1.3
2018-Jun-18 20:29N 26°06' W 080°07'0 0.0
2018-Jun-18 20:00N 26°06' W 080°07'0 0.0
2018-Jun-18 19:30N 26°06' W 080°07'0 0.0
2018-Jun-18 19:00N 26°06' W 080°07'0 0.0
2018-Jun-18 18:30N 26°06' W 080°07'0 0.0
2018-Jun-18 17:59N 26°06' W 080°07'0 0.0
2018-Jun-18 17:26N 26°06' W 080°07'0 0.0
2018-Jun-18 16:59N 26°06' W 080°07'0 0.0
2018-Jun-18 16:19N 26°06' W 080°07'0 0.0
2018-Jun-18 15:17N 26°06' W 080°07'0 0.0
2018-Jun-18 14:55N 26°06' W 080°07'0 0.0
2018-Jun-18 14:24N 26°06' W 080°07'0 0.0
2018-Jun-18 14:00N 26°06' W 080°07'0 0.0
2018-Jun-18 13:25N 26°06' W 080°07'0 0.0
2018-Jun-18 13:00N 26°06' W 080°07'0 0.0
2018-Jun-18 12:29N 26°06' W 080°07'0 0.0
2018-Jun-18 12:00N 26°06' W 080°07'0 0.0
2018-Jun-18 11:30N 26°06' W 080°07'0 0.0
2018-Jun-18 11:00N 26°06' W 080°07'2 3.6
2018-Jun-18 10:30N 26°06' W 080°05'1 2.9
2018-Jun-18 10:00N 26°05' W 080°07'0 0.3
2018-Jun-18 09:30N 26°05' W 080°07'1 2.2
2018-Jun-18 09:00N 26°04' W 080°07'0 0.6
2018-Jun-18 08:30N 26°04' W 080°07'2 1.6
2018-Jun-18 07:12N 26°06' W 080°07'1 3.6
2018-Jun-18 07:00N 26°06' W 080°07'1 1.2
2018-Jun-18 06:31N 26°05' W 080°07'1 2.5
2018-Jun-18 06:01N 26°06' W 080°07'0 0.2
2018-Jun-18 05:25N 26°06' W 080°07'3 7.0
2018-Jun-18 05:00N 26°05' W 080°04'2 4.8
2018-Jun-18 04:30N 26°06' W 080°07'1 1.3
2018-Jun-18 04:00N 26°06' W 080°07'0 0.0
2018-Jun-18 03:29N 26°06' W 080°07'0 0.0
2018-Jun-18 02:59N 26°06' W 080°07'1 2.1
2018-Jun-18 02:31N 26°05' W 080°07'0 0.7
2018-Jun-18 02:00N 26°05' W 080°07'0 0.9
2018-Jun-18 01:30N 26°06' W 080°07'3 6.7
2018-Jun-18 01:00N 26°06' W 080°03'3 6.7
2018-Jun-18 00:30N 26°06' W 080°07'0 0.2
2018-Jun-17 23:15N 26°06' W 080°07'0 0.7
2018-Jun-17 23:00N 26°06' W 080°07'1 1.7
2018-Jun-17 22:30N 26°05' W 080°07'4 7.3
2018-Jun-17 22:01N 26°04' W 080°03'4 7.2
2018-Jun-17 21:30N 26°05' W 080°07'0 0.7
2018-Jun-17 21:00N 26°06' W 080°07'1 1.4
2018-Jun-17 20:30N 26°05' W 080°07'1 2.6
2018-Jun-17 19:58N 26°06' W 080°07'0 0.0
2018-Jun-17 19:29N 26°06' W 080°07'0 0.0
2018-Jun-17 18:54N 26°06' W 080°07'0 0.0
2018-Jun-17 18:25N 26°06' W 080°07'0 0.0
2018-Jun-17 17:26N 26°06' W 080°07'0 0.0
2018-Jun-17 16:55N 26°06' W 080°07'0 0.0
2018-Jun-17 15:51N 26°06' W 080°07'0 0.0
2018-Jun-17 14:53N 26°06' W 080°07'0 0.0
2018-Jun-17 13:33N 26°06' W 080°07'0 0.0
2018-Jun-17 13:30N 26°06' W 080°07'0 0.0
2018-Jun-17 12:50N 26°06' W 080°07'0 0.0
2018-Jun-17 12:28N 26°06' W 080°07'0 0.0
2018-Jun-17 11:58N 26°06' W 080°07'0 0.0
2018-Jun-17 11:30N 26°06' W 080°07'611.2
2018-Jun-17 11:00N 26°06' W 080°01'510.6
2018-Jun-17 10:30N 26°06' W 080°07'0 0.6
2018-Jun-17 10:00N 26°05' W 080°07'1 1.4
2018-Jun-17 09:30N 26°06' W 080°07'3 5.2
2018-Jun-17 09:00N 26°05' W 080°04'3 5.8
2018-Jun-17 08:30N 26°05' W 080°07'0 0.0
2018-Jun-17 08:00N 26°05' W 080°07'1 2.6
2018-Jun-17 07:30N 26°06' W 080°06'1 2.6
2018-Jun-17 07:00N 26°05' W 080°07'1 2.0
2018-Jun-17 06:19N 26°06' W 080°07'0 0.0
2018-Jun-17 05:58N 26°06' W 080°07'4 8.2
2018-Jun-17 05:31N 26°06' W 080°03'4 7.0
2018-Jun-17 05:00N 26°06' W 080°07'0 0.5
2018-Jun-17 04:30N 26°05' W 080°07'1 1.8
2018-Jun-17 04:00N 26°05' W 080°07'4 7.3
2018-Jun-17 03:31N 26°06' W 080°03'4 6.8
2018-Jun-17 03:00N 26°06' W 080°07'0 0.2
2018-Jun-17 02:30N 26°06' W 080°07'4 7.9
2018-Jun-17 02:00N 26°06' W 080°03'4 8.1
2018-Jun-17 01:30N 26°06' W 080°07'3 5.5
2018-Jun-17 01:00N 26°06' W 080°04'3 5.5
2018-Jun-17 00:30N 26°06' W 080°07'1 1.3
2018-Jun-17 00:00N 26°05' W 080°07'0 0.5
2018-Jun-16 23:30N 26°05' W 080°07'1 1.2
2018-Jun-16 23:00N 26°06' W 080°07'0 0.2
2018-Jun-16 22:31N 26°06' W 080°07'2 3.4
2018-Jun-16 22:00N 26°04' W 080°07'612.2
2018-Jun-16 21:30N 26°07' W 080°01'4 7.5
2018-Jun-16 21:00N 26°06' W 080°05'2 3.1
2018-Jun-16 20:30N 26°06' W 080°07'0 0.4
2018-Jun-16 20:00N 26°06' W 080°07'1 1.1
2018-Jun-16 19:30N 26°06' W 080°07'0 0.0
2018-Jun-16 17:47N 26°06' W 080°07'0 0.0
2018-Jun-16 17:30N 26°06' W 080°07'0 0.0
2018-Jun-16 11:26N 26°06' W 080°07'4 9.6
2018-Jun-16 11:00N 26°05' W 080°03'4 7.2
2018-Jun-16 10:31N 26°05' W 080°07'1 2.1
2018-Jun-16 10:00N 26°04' W 080°07'1 2.8
2018-Jun-16 09:31N 26°06' W 080°07'510.3
2018-Jun-16 09:01N 26°06' W 080°01'510.2
2018-Jun-16 08:30N 26°06' W 080°07'1 0.5
2018-Jun-16 07:17N 26°06' W 080°07'0 0.0
2018-Jun-16 06:01N 26°06' W 080°07'0 2.9
2018-Jun-16 05:59N 26°06' W 080°07'3 5.7
2018-Jun-16 05:31N 26°05' W 080°04'2 4.8
2018-Jun-16 05:00N 26°05' W 080°07'1 1.5
2018-Jun-16 04:30N 26°06' W 080°07'0 0.0
2018-Jun-16 03:02N 26°06' W 080°07'0 4.4
2018-Jun-16 03:00N 26°06' W 080°07'1 1.0
2018-Jun-16 02:30N 26°06' W 080°07'0 0.9
2018-Jun-16 02:00N 26°06' W 080°07'3 5.5
2018-Jun-16 01:30N 26°06' W 080°04'3 5.5
2018-Jun-16 01:00N 26°06' W 080°07'0 0.5
2018-Jun-16 00:30N 26°06' W 080°07'0 0.6
2018-Jun-16 00:01N 26°06' W 080°07'2 4.2
2018-Jun-15 23:30N 26°04' W 080°07'2 3.4
2018-Jun-15 23:01N 26°06' W 080°07'0 0.4
2018-Jun-15 22:30N 26°05' W 080°07'2 3.8
2018-Jun-15 22:01N 26°05' W 080°05'2 3.9
2018-Jun-15 21:31N 26°06' W 080°07'4 8.4
2018-Jun-15 21:00N 26°06' W 080°02'4 8.9
2018-Jun-15 20:30N 26°06' W 080°07'1 0.9
2018-Jun-15 19:54N 26°06' W 080°07'0 0.0
2018-Jun-15 19:22N 26°06' W 080°07'0 0.0
2018-Jun-15 12:16N 26°06' W 080°07'0 0.0
2018-Jun-15 11:53N 26°06' W 080°07'0 0.0
2018-Jun-15 11:30N 26°06' W 080°07'511.0
2018-Jun-15 11:00N 26°06' W 080°01'510.1
2018-Jun-15 10:30N 26°05' W 080°07'0 0.6
2018-Jun-15 10:00N 26°04' W 080°07'1 2.0
2018-Jun-15 09:30N 26°05' W 080°07'3 5.2
2018-Jun-15 09:00N 26°06' W 080°04'3 5.5
2018-Jun-15 08:30N 26°04' W 080°07'2 4.7
2018-Jun-15 08:00N 26°06' W 080°05'0 0.9
2018-Jun-15 07:31N 26°06' W 080°05'2 3.1
2018-Jun-15 07:00N 26°05' W 080°07'1 2.1
2018-Jun-15 06:30N 26°04' W 080°07'1 2.3
2018-Jun-15 06:00N 26°05' W 080°07'2 4.3
2018-Jun-15 05:31N 26°05' W 080°04'2 4.7
2018-Jun-15 05:00N 26°05' W 080°07'1 1.8
2018-Jun-15 04:30N 26°04' W 080°07'2 3.4
2018-Jun-15 04:00N 26°06' W 080°06'2 3.1
2018-Jun-15 03:30N 26°06' W 080°07'1 2.2
2018-Jun-15 03:00N 26°06' W 080°06'1 2.2
2018-Jun-15 02:27N 26°06' W 080°07'0 0.0
2018-Jun-15 01:36N 26°06' W 080°07'0 5.0
2018-Jun-15 01:30N 26°06' W 080°07'0 0.3
2018-Jun-15 01:00N 26°06' W 080°07'0 0.5
2018-Jun-15 00:23N 26°06' W 080°07'2 4.8
2018-Jun-15 00:00N 26°04' W 080°07'1 1.8
2018-Jun-14 23:30N 26°05' W 080°07'1 1.2
2018-Jun-14 23:00N 26°05' W 080°07'1 2.0
2018-Jun-14 22:30N 26°06' W 080°06'1 1.6
2018-Jun-14 22:00N 26°05' W 080°07'1 1.1
2018-Jun-14 21:30N 26°04' W 080°07'3 6.7
2018-Jun-14 21:00N 26°06' W 080°04'4 8.3
2018-Jun-14 20:30N 26°04' W 080°07'2 5.0
2018-Jun-14 20:00N 26°06' W 080°07'0 0.2
2018-Jun-14 19:29N 26°06' W 080°07'0 0.0
2018-Jun-14 19:01N 26°06' W 080°07'0 0.0
2018-Jun-14 18:30N 26°06' W 080°07'0 0.0
2018-Jun-14 17:41N 26°06' W 080°07'0 0.0
2018-Jun-14 17:27N 26°06' W 080°07'0 0.0
2018-Jun-14 16:52N 26°06' W 080°07'0 0.0
2018-Jun-14 16:30N 26°06' W 080°07'0 0.0
2018-Jun-14 15:59N 26°06' W 080°07'0 0.0
2018-Jun-14 15:30N 26°06' W 080°07'0 0.0
2018-Jun-14 14:56N 26°06' W 080°07'0 0.0
2018-Jun-14 14:27N 26°06' W 080°07'0 0.0
2018-Jun-14 13:59N 26°06' W 080°07'0 0.0
2018-Jun-14 13:20N 26°06' W 080°07'0 0.0
2018-Jun-14 13:00N 26°06' W 080°07'0 0.0
2018-Jun-14 12:29N 26°06' W 080°07'0 0.0
2018-Jun-14 11:56N 26°06' W 080°07'0 0.0
2018-Jun-14 11:29N 26°06' W 080°07'0 0.0
2018-Jun-14 11:00N 26°06' W 080°07'5 9.9
2018-Jun-14 10:31N 26°06' W 080°02'5 9.2
2018-Jun-14 10:00N 26°05' W 080°07'0 0.6
2018-Jun-14 09:30N 26°06' W 080°07'0 0.1
2018-Jun-14 09:00N 26°05' W 080°07'0 0.7
2018-Jun-14 08:30N 26°05' W 080°07'3 5.6
2018-Jun-14 08:01N 26°06' W 080°04'3 6.1
2018-Jun-14 07:30N 26°04' W 080°07'2 3.6
2018-Jun-14 07:00N 26°06' W 080°07'0 0.0
2018-Jun-14 03:27N 26°06' W 080°07'4 8.2
2018-Jun-14 03:01N 26°07' W 080°03'4 8.8
2018-Jun-14 02:30N 26°04' W 080°07'0 0.1
2018-Jun-14 02:01N 26°04' W 080°07'2 3.3
2018-Jun-14 01:31N 26°06' W 080°07'0 1.0
2018-Jun-14 01:00N 26°06' W 080°07'1 1.8
2018-Jun-14 00:30N 26°06' W 080°06'1 1.2
2018-Jun-14 00:00N 26°06' W 080°06'4 8.1
2018-Jun-13 23:30N 26°06' W 080°02'5 9.4
2018-Jun-13 23:00N 26°06' W 080°07'0 0.8
2018-Jun-13 22:29N 26°06' W 080°07'0 0.0
2018-Jun-13 22:00N 26°06' W 080°07'0 0.0
2018-Jun-13 21:24N 26°06' W 080°07'0 0.0
2018-Jun-13 20:59N 26°06' W 080°07'0 0.0
2018-Jun-13 20:30N 26°06' W 080°07'0 0.0
2018-Jun-13 20:00N 26°06' W 080°07'0 0.0
2018-Jun-13 19:30N 26°06' W 080°07'0 0.0
2018-Jun-13 19:00N 26°06' W 080°07'0 0.0
2018-Jun-13 18:30N 26°06' W 080°07'0 0.0
2018-Jun-13 17:59N 26°06' W 080°07'0 0.0
2018-Jun-13 17:16N 26°06' W 080°07'0 0.0
2018-Jun-13 15:07N 26°06' W 080°07'0 0.0
2018-Jun-13 15:00N 26°06' W 080°07'0 0.0
2018-Jun-13 14:30N 26°06' W 080°07'0 0.0
2018-Jun-13 14:00N 26°06' W 080°07'0 0.0
2018-Jun-13 13:29N 26°06' W 080°07'0 0.0
2018-Jun-13 13:00N 26°06' W 080°07'0 0.0
2018-Jun-13 11:53N 26°06' W 080°07'0 0.0
2018-Jun-13 11:29N 26°06' W 080°07'1 1.2
2018-Jun-13 11:01N 26°06' W 080°07'3 6.9
2018-Jun-13 10:31N 26°06' W 080°03'4 7.4
2018-Jun-13 10:00N 26°05' W 080°07'2 3.6
2018-Jun-13 09:30N 26°06' W 080°05'1 1.3
2018-Jun-13 09:00N 26°06' W 080°06'1 1.7
2018-Jun-13 08:30N 26°05' W 080°07'1 2.2
2018-Jun-13 08:00N 26°04' W 080°07'3 5.3
2018-Jun-13 07:30N 26°06' W 080°04'3 5.4
2018-Jun-13 07:00N 26°04' W 080°07'1 2.7
2018-Jun-13 06:30N 26°05' W 080°07'1 1.6
2018-Jun-13 06:01N 26°06' W 080°07'0 0.0
2018-Jun-13 05:22N 26°06' W 080°07'0 0.0
2018-Jun-13 04:51N 26°06' W 080°07'0 0.0
2018-Jun-13 04:29N 26°06' W 080°07'0 0.0
2018-Jun-13 03:49N 26°06' W 080°07'0 0.0
2018-Jun-13 03:30N 26°06' W 080°07'0 0.0
2018-Jun-13 03:00N 26°06' W 080°07'0 0.5
2018-Jun-13 02:30N 26°06' W 080°07'0 0.6
2018-Jun-13 02:00N 26°06' W 080°07'1 1.2
2018-Jun-13 01:31N 26°05' W 080°07'0 0.9
2018-Jun-13 01:00N 26°05' W 080°07'0 0.1
2018-Jun-13 00:30N 26°06' W 080°07'0 0.2
2018-Jun-13 00:00N 26°05' W 080°07'2 4.1
2018-Jun-12 23:30N 26°05' W 080°05'2 4.1
2018-Jun-12 23:01N 26°05' W 080°07'1 1.7
2018-Jun-12 22:31N 26°05' W 080°07'1 1.5
2018-Jun-12 22:00N 26°05' W 080°07'1 1.5
2018-Jun-12 21:30N 26°06' W 080°07'0 0.0
2018-Jun-12 21:00N 26°06' W 080°07'1 1.6
2018-Jun-12 20:31N 26°05' W 080°07'4 8.3
2018-Jun-12 20:00N 26°05' W 080°02'4 8.0
2018-Jun-12 19:30N 26°05' W 080°07'1 1.6
2018-Jun-12 19:00N 26°06' W 080°07'0 0.6
2018-Jun-12 18:30N 26°06' W 080°07'0 0.0
2018-Jun-12 18:00N 26°06' W 080°07'0 0.0
2018-Jun-12 17:30N 26°06' W 080°07'0 0.0
2018-Jun-12 17:00N 26°06' W 080°07'0 0.0
2018-Jun-12 16:30N 26°06' W 080°07'0 0.0
2018-Jun-12 16:00N 26°06' W 080°07'0 0.0
2018-Jun-12 15:26N 26°06' W 080°07'0 0.0
2018-Jun-12 14:59N 26°06' W 080°07'0 0.0
2018-Jun-12 14:28N 26°06' W 080°07'0 0.0
2018-Jun-12 14:00N 26°06' W 080°07'0 0.0
2018-Jun-12 13:30N 26°06' W 080°07'0 0.0
2018-Jun-12 13:00N 26°06' W 080°07'0 0.0
2018-Jun-12 12:30N 26°06' W 080°07'0 0.0
2018-Jun-12 12:00N 26°06' W 080°07'0 0.0
2018-Jun-12 11:30N 26°06' W 080°07'0 0.0
2018-Jun-12 11:00N 26°06' W 080°07'0 0.2
2018-Jun-12 10:30N 26°06' W 080°07'1 2.9
2018-Jun-12 10:00N 26°06' W 080°06'1 2.8
2018-Jun-12 09:30N 26°06' W 080°07'0 0.1
2018-Jun-12 09:00N 26°06' W 080°07'0 0.0
2018-Jun-12 08:30N 26°06' W 080°07'0 0.0
2018-Jun-12 08:00N 26°06' W 080°07'0 0.0
2018-Jun-12 07:30N 26°06' W 080°07'0 0.0
2018-Jun-12 07:00N 26°06' W 080°07'0 0.0
2018-Jun-12 06:30N 26°06' W 080°07'0 0.0
2018-Jun-12 06:00N 26°06' W 080°07'0 0.0
2018-Jun-12 05:29N 26°06' W 080°07'0 0.0
2018-Jun-12 04:47N 26°06' W 080°07'0 0.0
2018-Jun-12 04:30N 26°06' W 080°07'0 0.0
2018-Jun-12 04:00N 26°06' W 080°07'0 0.0
2018-Jun-12 03:29N 26°06' W 080°07'0 0.0
2018-Jun-12 02:58N 26°06' W 080°07'1 1.9
2018-Jun-12 02:30N 26°05' W 080°07'1 1.4
2018-Jun-12 02:01N 26°06' W 080°06'  
Track history (hours):
 
Tides and Currents Weather Stations Pressure Air Temp Water Temp Dewpoint Dewpoint Depression Visibility Wind Speed Wind Dir Waves Ship Positions

Pilot No 7

Owner: P.E.P. Inc., FORT LAUDERDALE, FL. More information available from US FCC via Universal Licensing System and Coast Guard Vessel Documentation Center.

Last reported at 2018-Jun-22 02:00 UTC. Time now 2018-Jun-22 01:59 UTC.
Position N 26°06' W 080°07'.

Length 15 m; draft 1.5 m.

Type: Pilot. MMSI: 368005850.

Date/timePositionNaut miles runAvg speedWind from/ knotsBaromVisibWave heightAir tempDewpointWater temp
2018-Jun-22 02:00N 26°06' W 080°07'1 1.3
2018-Jun-22 01:31N 26°06' W 080°06'1 1.3
2018-Jun-22 01:00N 26°06' W 080°06'2 3.1
2018-Jun-22 00:30N 26°06' W 080°07'1 2.7
2018-Jun-22 00:01N 26°06' W 080°06'1 2.2
2018-Jun-21 23:30N 26°06' W 080°07'0 0.4
2018-Jun-21 23:00N 26°06' W 080°07'1 1.9
2018-Jun-21 22:30N 26°05' W 080°07'2 4.3
2018-Jun-21 22:00N 26°05' W 080°05'1 2.2
2018-Jun-21 21:31N 26°06' W 080°05'2 4.3
2018-Jun-21 21:01N 26°06' W 080°07'2 3.5
2018-Jun-21 20:30N 26°06' W 080°05'0 0.3
2018-Jun-21 20:00N 26°06' W 080°05'2 3.7
2018-Jun-21 19:30N 26°06' W 080°07'1 1.3
2018-Jun-21 19:00N 26°06' W 080°07'2 3.1
2018-Jun-21 18:31N 26°06' W 080°05'2 3.5
2018-Jun-21 18:01N 26°05' W 080°07'0 0.2
2018-Jun-21 17:31N 26°06' W 080°07'0 0.1
2018-Jun-21 17:01N 26°06' W 080°07'1 2.5
2018-Jun-21 16:30N 26°06' W 080°06'1 2.3
2018-Jun-21 16:00N 26°05' W 080°07'1 2.1
2018-Jun-21 15:29N 26°06' W 080°07'0 0.0
2018-Jun-21 14:54N 26°06' W 080°07'0 0.0
2018-Jun-21 14:29N 26°06' W 080°07'0 0.0
2018-Jun-21 14:00N 26°06' W 080°07'0 0.0
2018-Jun-21 13:29N 26°06' W 080°07'1 2.1
2018-Jun-21 13:00N 26°06' W 080°06'1 1.0
2018-Jun-21 12:30N 26°05' W 080°07'1 1.1
2018-Jun-21 12:00N 26°06' W 080°06'1 1.4
2018-Jun-21 11:31N 26°06' W 080°07'0 0.5
2018-Jun-21 11:00N 26°06' W 080°07'4 8.3
2018-Jun-21 10:30N 26°06' W 080°03'4 8.3
2018-Jun-21 10:00N 26°05' W 080°07'510.0
2018-Jun-21 09:30N 26°06' W 080°02'4 7.8
2018-Jun-21 09:00N 26°06' W 080°06'1 2.2
2018-Jun-21 08:30N 26°05' W 080°07'1 1.7
2018-Jun-21 08:00N 26°06' W 080°07'1 2.4
2018-Jun-21 07:30N 26°04' W 080°07'5 9.2
2018-Jun-21 07:00N 26°05' W 080°02'4 8.1
2018-Jun-21 06:31N 26°06' W 080°06'0 0.5
2018-Jun-21 06:00N 26°06' W 080°07'0 0.8
2018-Jun-21 05:30N 26°06' W 080°07'0 0.5
2018-Jun-21 05:00N 26°06' W 080°07'1 2.4
2018-Jun-21 04:30N 26°04' W 080°07'1 2.5
2018-Jun-21 04:00N 26°06' W 080°07'1 2.0
2018-Jun-21 03:30N 26°05' W 080°07'2 1.6
2018-Jun-21 02:30N 26°06' W 080°07'0 0.0
2018-Jun-21 01:52N 26°06' W 080°07'0 0.0
2018-Jun-21 01:28N 26°06' W 080°07'0 0.0
2018-Jun-21 01:00N 26°06' W 080°07'0 0.0
2018-Jun-21 00:09N 26°06' W 080°07'0 0.0
2018-Jun-20 23:53N 26°06' W 080°07'0 0.0
2018-Jun-20 23:29N 26°06' W 080°07'0 0.0
2018-Jun-20 22:56N 26°06' W 080°07'0 0.0
2018-Jun-20 22:27N 26°06' W 080°07'0 0.0
2018-Jun-20 22:00N 26°06' W 080°07'0 0.0
2018-Jun-20 13:51N 26°06' W 080°07'0 0.0
2018-Jun-20 11:20N 26°06' W 080°07'2 5.1
2018-Jun-20 11:00N 26°06' W 080°06'1 2.7
2018-Jun-20 10:30N 26°05' W 080°07'0 0.3
2018-Jun-20 10:00N 26°05' W 080°07'0 0.4
2018-Jun-20 09:30N 26°05' W 080°07'2 4.3
2018-Jun-20 09:00N 26°05' W 080°05'2 4.1
2018-Jun-20 08:30N 26°05' W 080°07'3 5.8
2018-Jun-20 08:01N 26°06' W 080°04'3 6.4
2018-Jun-20 07:30N 26°04' W 080°07'3 5.5
2018-Jun-20 07:00N 26°06' W 080°04'2 4.7
2018-Jun-20 06:30N 26°05' W 080°07'2 5.0
2018-Jun-20 06:00N 26°06' W 080°04'3 5.8
2018-Jun-20 05:30N 26°05' W 080°07'1 2.1
2018-Jun-20 05:00N 26°05' W 080°07'2 3.3
2018-Jun-20 04:30N 26°06' W 080°07'0 0.0
2018-Jun-19 20:26N 26°06' W 080°07'0 0.0
2018-Jun-19 19:59N 26°06' W 080°07'0 0.0
2018-Jun-19 19:28N 26°06' W 080°07'0 0.0
2018-Jun-19 18:59N 26°06' W 080°07'0 0.4
2018-Jun-19 18:30N 26°06' W 080°07'0 0.4
2018-Jun-19 18:00N 26°06' W 080°07'0 0.1
2018-Jun-19 13:02N 26°06' W 080°07'0 0.0
2018-Jun-19 06:47N 26°06' W 080°07'2 5.8
2018-Jun-19 06:30N 26°05' W 080°07'2 3.6
2018-Jun-19 06:00N 26°06' W 080°05'2 3.4
2018-Jun-19 05:30N 26°05' W 080°07'1 2.1
2018-Jun-19 05:00N 26°04' W 080°07'0 0.3
2018-Jun-19 04:30N 26°04' W 080°07'2 3.0
2018-Jun-19 04:00N 26°06' W 080°06'1 1.2
2018-Jun-19 03:30N 26°06' W 080°07'1 1.6
2018-Jun-19 03:00N 26°06' W 080°07'0 0.0
2018-Jun-19 02:27N 26°06' W 080°07'0 0.0
2018-Jun-19 02:00N 26°06' W 080°07'0 0.0
2018-Jun-19 01:30N 26°06' W 080°07'0 0.0
2018-Jun-19 01:00N 26°06' W 080°07'0 0.0
2018-Jun-19 00:30N 26°06' W 080°07'0 0.0
2018-Jun-19 00:00N 26°06' W 080°07'1 2.4
2018-Jun-18 23:30N 26°05' W 080°07'1 2.4
2018-Jun-18 23:01N 26°04' W 080°07'2 3.6
2018-Jun-18 22:31N 26°06' W 080°07'1 1.1
2018-Jun-18 22:00N 26°06' W 080°07'2 3.5
2018-Jun-18 21:30N 26°06' W 080°05'2 4.1
2018-Jun-18 21:00N 26°05' W 080°07'1 1.3
2018-Jun-18 20:29N 26°06' W 080°07'0 0.0
2018-Jun-18 20:00N 26°06' W 080°07'0 0.0
2018-Jun-18 19:30N 26°06' W 080°07'0 0.0
2018-Jun-18 19:00N 26°06' W 080°07'0 0.0
2018-Jun-18 18:30N 26°06' W 080°07'0 0.0
2018-Jun-18 17:59N 26°06' W 080°07'0 0.0
2018-Jun-18 17:26N 26°06' W 080°07'0 0.0
2018-Jun-18 16:59N 26°06' W 080°07'0 0.0
2018-Jun-18 16:19N 26°06' W 080°07'0 0.0
2018-Jun-18 15:17N 26°06' W 080°07'0 0.0
2018-Jun-18 14:55N 26°06' W 080°07'0 0.0
2018-Jun-18 14:24N 26°06' W 080°07'0 0.0
2018-Jun-18 14:00N 26°06' W 080°07'0 0.0
2018-Jun-18 13:25N 26°06' W 080°07'0 0.0
2018-Jun-18 13:00N 26°06' W 080°07'0 0.0
2018-Jun-18 12:29N 26°06' W 080°07'0 0.0
2018-Jun-18 12:00N 26°06' W 080°07'0 0.0
2018-Jun-18 11:30N 26°06' W 080°07'0 0.0
2018-Jun-18 11:00N 26°06' W 080°07'2 3.6
2018-Jun-18 10:30N 26°06' W 080°05'1 2.9
2018-Jun-18 10:00N 26°05' W 080°07'0 0.3
2018-Jun-18 09:30N 26°05' W 080°07'1 2.2
2018-Jun-18 09:00N 26°04' W 080°07'0 0.6
2018-Jun-18 08:30N 26°04' W 080°07'2 1.6
2018-Jun-18 07:12N 26°06' W 080°07'1 3.6
2018-Jun-18 07:00N 26°06' W 080°07'1 1.2
2018-Jun-18 06:31N 26°05' W 080°07'1 2.5
2018-Jun-18 06:01N 26°06' W 080°07'0 0.2
2018-Jun-18 05:25N 26°06' W 080°07'3 7.0
2018-Jun-18 05:00N 26°05' W 080°04'2 4.8
2018-Jun-18 04:30N 26°06' W 080°07'1 1.3
2018-Jun-18 04:00N 26°06' W 080°07'0 0.0
2018-Jun-18 03:29N 26°06' W 080°07'0 0.0
2018-Jun-18 02:59N 26°06' W 080°07'1 2.1
2018-Jun-18 02:31N 26°05' W 080°07'0 0.7
2018-Jun-18 02:00N 26°05' W 080°07'0 0.9
2018-Jun-18 01:30N 26°06' W 080°07'3 6.7
2018-Jun-18 01:00N 26°06' W 080°03'3 6.7
2018-Jun-18 00:30N 26°06' W 080°07'0 0.2
2018-Jun-17 23:15N 26°06' W 080°07'0 0.7
2018-Jun-17 23:00N 26°06' W 080°07'1 1.7
2018-Jun-17 22:30N 26°05' W 080°07'4 7.3
2018-Jun-17 22:01N 26°04' W 080°03'4 7.2
2018-Jun-17 21:30N 26°05' W 080°07'0 0.7
2018-Jun-17 21:00N 26°06' W 080°07'1 1.4
2018-Jun-17 20:30N 26°05' W 080°07'1 2.6
2018-Jun-17 19:58N 26°06' W 080°07'0 0.0
2018-Jun-17 19:29N 26°06' W 080°07'0 0.0
2018-Jun-17 18:54N 26°06' W 080°07'0 0.0
2018-Jun-17 18:25N 26°06' W 080°07'0 0.0
2018-Jun-17 17:26N 26°06' W 080°07'0 0.0
2018-Jun-17 16:55N 26°06' W 080°07'0 0.0
2018-Jun-17 15:51N 26°06' W 080°07'0 0.0
2018-Jun-17 14:53N 26°06' W 080°07'0 0.0
2018-Jun-17 13:33N 26°06' W 080°07'0 0.0
2018-Jun-17 13:30N 26°06' W 080°07'0 0.0
2018-Jun-17 12:50N 26°06' W 080°07'0 0.0
2018-Jun-17 12:28N 26°06' W 080°07'0 0.0
2018-Jun-17 11:58N 26°06' W 080°07'0 0.0
2018-Jun-17 11:30N 26°06' W 080°07'611.2
2018-Jun-17 11:00N 26°06' W 080°01'510.6
2018-Jun-17 10:30N 26°06' W 080°07'0 0.6
2018-Jun-17 10:00N 26°05' W 080°07'1 1.4
2018-Jun-17 09:30N 26°06' W 080°07'3 5.2
2018-Jun-17 09:00N 26°05' W 080°04'3 5.8
2018-Jun-17 08:30N 26°05' W 080°07'0 0.0
2018-Jun-17 08:00N 26°05' W 080°07'1 2.6
2018-Jun-17 07:30N 26°06' W 080°06'1 2.6
2018-Jun-17 07:00N 26°05' W 080°07'1 2.0
2018-Jun-17 06:19N 26°06' W 080°07'0 0.0
2018-Jun-17 05:58N 26°06' W 080°07'4 8.2
2018-Jun-17 05:31N 26°06' W 080°03'4 7.0
2018-Jun-17 05:00N 26°06' W 080°07'0 0.5
2018-Jun-17 04:30N 26°05' W 080°07'1 1.8
2018-Jun-17 04:00N 26°05' W 080°07'4 7.3
2018-Jun-17 03:31N 26°06' W 080°03'4 6.8
2018-Jun-17 03:00N 26°06' W 080°07'0 0.2
2018-Jun-17 02:30N 26°06' W 080°07'4 7.9
2018-Jun-17 02:00N 26°06' W 080°03'4 8.1
2018-Jun-17 01:30N 26°06' W 080°07'3 5.5
2018-Jun-17 01:00N 26°06' W 080°04'3 5.5
2018-Jun-17 00:30N 26°06' W 080°07'1 1.3
2018-Jun-17 00:00N 26°05' W 080°07'0 0.5
2018-Jun-16 23:30N 26°05' W 080°07'1 1.2
2018-Jun-16 23:00N 26°06' W 080°07'0 0.2
2018-Jun-16 22:31N 26°06' W 080°07'2 3.4
2018-Jun-16 22:00N 26°04' W 080°07'612.2
2018-Jun-16 21:30N 26°07' W 080°01'4 7.5
2018-Jun-16 21:00N 26°06' W 080°05'2 3.1
2018-Jun-16 20:30N 26°06' W 080°07'0 0.4
2018-Jun-16 20:00N 26°06' W 080°07'1 1.1
2018-Jun-16 19:30N 26°06' W 080°07'0 0.0
2018-Jun-16 17:47N 26°06' W 080°07'0 0.0
2018-Jun-16 17:30N 26°06' W 080°07'0 0.0
2018-Jun-16 11:26N 26°06' W 080°07'4 9.6
2018-Jun-16 11:00N 26°05' W 080°03'4 7.2
2018-Jun-16 10:31N 26°05' W 080°07'1 2.1
2018-Jun-16 10:00N 26°04' W 080°07'1 2.8
2018-Jun-16 09:31N 26°06' W 080°07'510.3
2018-Jun-16 09:01N 26°06' W 080°01'510.2
2018-Jun-16 08:30N 26°06' W 080°07'1 0.5
2018-Jun-16 07:17N 26°06' W 080°07'0 0.0
2018-Jun-16 06:01N 26°06' W 080°07'0 2.9
2018-Jun-16 05:59N 26°06' W 080°07'3 5.7
2018-Jun-16 05:31N 26°05' W 080°04'2 4.8
2018-Jun-16 05:00N 26°05' W 080°07'1 1.5
2018-Jun-16 04:30N 26°06' W 080°07'0 0.0
2018-Jun-16 03:02N 26°06' W 080°07'0 4.4
2018-Jun-16 03:00N 26°06' W 080°07'1 1.0
2018-Jun-16 02:30N 26°06' W 080°07'0 0.9
2018-Jun-16 02:00N 26°06' W 080°07'3 5.5
2018-Jun-16 01:30N 26°06' W 080°04'3 5.5
2018-Jun-16 01:00N 26°06' W 080°07'0 0.5
2018-Jun-16 00:30N 26°06' W 080°07'0 0.6
2018-Jun-16 00:01N 26°06' W 080°07'2 4.2
2018-Jun-15 23:30N 26°04' W 080°07'2 3.4
2018-Jun-15 23:01N 26°06' W 080°07'0 0.4
2018-Jun-15 22:30N 26°05' W 080°07'2 3.8
2018-Jun-15 22:01N 26°05' W 080°05'2 3.9
2018-Jun-15 21:31N 26°06' W 080°07'4 8.4
2018-Jun-15 21:00N 26°06' W 080°02'4 8.9
2018-Jun-15 20:30N 26°06' W 080°07'1 0.9
2018-Jun-15 19:54N 26°06' W 080°07'0 0.0
2018-Jun-15 19:22N 26°06' W 080°07'0 0.0
2018-Jun-15 12:16N 26°06' W 080°07'0 0.0
2018-Jun-15 11:53N 26°06' W 080°07'0 0.0
2018-Jun-15 11:30N 26°06' W 080°07'511.0
2018-Jun-15 11:00N 26°06' W 080°01'510.1
2018-Jun-15 10:30N 26°05' W 080°07'0 0.6
2018-Jun-15 10:00N 26°04' W 080°07'1 2.0
2018-Jun-15 09:30N 26°05' W 080°07'3 5.2
2018-Jun-15 09:00N 26°06' W 080°04'3 5.5
2018-Jun-15 08:30N 26°04' W 080°07'2 4.7
2018-Jun-15 08:00N 26°06' W 080°05'0 0.9
2018-Jun-15 07:31N 26°06' W 080°05'2 3.1
2018-Jun-15 07:00N 26°05' W 080°07'1 2.1
2018-Jun-15 06:30N 26°04' W 080°07'1 2.3
2018-Jun-15 06:00N 26°05' W 080°07'2 4.3
2018-Jun-15 05:31N 26°05' W 080°04'2 4.7
2018-Jun-15 05:00N 26°05' W 080°07'1 1.8
2018-Jun-15 04:30N 26°04' W 080°07'2 3.4
2018-Jun-15 04:00N 26°06' W 080°06'2 3.1
2018-Jun-15 03:30N 26°06' W 080°07'1 2.2
2018-Jun-15 03:00N 26°06' W 080°06'1 2.2
2018-Jun-15 02:27N 26°06' W 080°07'0 0.0
2018-Jun-15 01:36N 26°06' W 080°07'0 5.0
2018-Jun-15 01:30N 26°06' W 080°07'0 0.3
2018-Jun-15 01:00N 26°06' W 080°07'0 0.5
2018-Jun-15 00:23N 26°06' W 080°07'2 4.8
2018-Jun-15 00:00N 26°04' W 080°07'1 1.8
2018-Jun-14 23:30N 26°05' W 080°07'1 1.2
2018-Jun-14 23:00N 26°05' W 080°07'1 2.0
2018-Jun-14 22:30N 26°06' W 080°06'1 1.6
2018-Jun-14 22:00N 26°05' W 080°07'1 1.1
2018-Jun-14 21:30N 26°04' W 080°07'3 6.7
2018-Jun-14 21:00N 26°06' W 080°04'4 8.3
2018-Jun-14 20:30N 26°04' W 080°07'2 5.0
2018-Jun-14 20:00N 26°06' W 080°07'0 0.2
2018-Jun-14 19:29N 26°06' W 080°07'0 0.0
2018-Jun-14 19:01N 26°06' W 080°07'0 0.0
2018-Jun-14 18:30N 26°06' W 080°07'0 0.0
2018-Jun-14 17:41N 26°06' W 080°07'0 0.0
2018-Jun-14 17:27N 26°06' W 080°07'0 0.0
2018-Jun-14 16:52N 26°06' W 080°07'0 0.0
2018-Jun-14 16:30N 26°06' W 080°07'0 0.0
2018-Jun-14 15:59N 26°06' W 080°07'0 0.0
2018-Jun-14 15:30N 26°06' W 080°07'0 0.0
2018-Jun-14 14:56N 26°06' W 080°07'0 0.0
2018-Jun-14 14:27N 26°06' W 080°07'0 0.0
2018-Jun-14 13:59N 26°06' W 080°07'0 0.0
2018-Jun-14 13:20N 26°06' W 080°07'0 0.0
2018-Jun-14 13:00N 26°06' W 080°07'0 0.0
2018-Jun-14 12:29N 26°06' W 080°07'0 0.0
2018-Jun-14 11:56N 26°06' W 080°07'0 0.0
2018-Jun-14 11:29N 26°06' W 080°07'0 0.0
2018-Jun-14 11:00N 26°06' W 080°07'5 9.9
2018-Jun-14 10:31N 26°06' W 080°02'5 9.2
2018-Jun-14 10:00N 26°05' W 080°07'0 0.6
2018-Jun-14 09:30N 26°06' W 080°07'0 0.1
2018-Jun-14 09:00N 26°05' W 080°07'0 0.7
2018-Jun-14 08:30N 26°05' W 080°07'3 5.6
2018-Jun-14 08:01N 26°06' W 080°04'3 6.1
2018-Jun-14 07:30N 26°04' W 080°07'2 3.6
2018-Jun-14 07:00N 26°06' W 080°07'0 0.0
2018-Jun-14 03:27N 26°06' W 080°07'4 8.2
2018-Jun-14 03:01N 26°07' W 080°03'4 8.8
2018-Jun-14 02:30N 26°04' W 080°07'0 0.1
2018-Jun-14 02:01N 26°04' W 080°07'2 3.3
2018-Jun-14 01:31N 26°06' W 080°07'0 1.0
2018-Jun-14 01:00N 26°06' W 080°07'1 1.8
2018-Jun-14 00:30N 26°06' W 080°06'1 1.2
2018-Jun-14 00:00N 26°06' W 080°06'4 8.1
2018-Jun-13 23:30N 26°06' W 080°02'5 9.4
2018-Jun-13 23:00N 26°06' W 080°07'0 0.8
2018-Jun-13 22:29N 26°06' W 080°07'0 0.0
2018-Jun-13 22:00N 26°06' W 080°07'0 0.0
2018-Jun-13 21:24N 26°06' W 080°07'0 0.0
2018-Jun-13 20:59N 26°06' W 080°07'0 0.0
2018-Jun-13 20:30N 26°06' W 080°07'0 0.0
2018-Jun-13 20:00N 26°06' W 080°07'0 0.0
2018-Jun-13 19:30N 26°06' W 080°07'0 0.0
2018-Jun-13 19:00N 26°06' W 080°07'0 0.0
2018-Jun-13 18:30N 26°06' W 080°07'0 0.0
2018-Jun-13 17:59N 26°06' W 080°07'0 0.0
2018-Jun-13 17:16N 26°06' W 080°07'0 0.0
2018-Jun-13 15:07N 26°06' W 080°07'0 0.0
2018-Jun-13 15:00N 26°06' W 080°07'0 0.0
2018-Jun-13 14:30N 26°06' W 080°07'0 0.0
2018-Jun-13 14:00N 26°06' W 080°07'0 0.0
2018-Jun-13 13:29N 26°06' W 080°07'0 0.0
2018-Jun-13 13:00N 26°06' W 080°07'0 0.0
2018-Jun-13 11:53N 26°06' W 080°07'0 0.0
2018-Jun-13 11:29N 26°06' W 080°07'1 1.2
2018-Jun-13 11:01N 26°06' W 080°07'3 6.9
2018-Jun-13 10:31N 26°06' W 080°03'4 7.4
2018-Jun-13 10:00N 26°05' W 080°07'2 3.6
2018-Jun-13 09:30N 26°06' W 080°05'1 1.3
2018-Jun-13 09:00N 26°06' W 080°06'1 1.7
2018-Jun-13 08:30N 26°05' W 080°07'1 2.2
2018-Jun-13 08:00N 26°04' W 080°07'3 5.3
2018-Jun-13 07:30N 26°06' W 080°04'3 5.4
2018-Jun-13 07:00N 26°04' W 080°07'1 2.7
2018-Jun-13 06:30N 26°05' W 080°07'1 1.6
2018-Jun-13 06:01N 26°06' W 080°07'0 0.0
2018-Jun-13 05:22N 26°06' W 080°07'0 0.0
2018-Jun-13 04:51N 26°06' W 080°07'0 0.0
2018-Jun-13 04:29N 26°06' W 080°07'0 0.0
2018-Jun-13 03:49N 26°06' W 080°07'0 0.0
2018-Jun-13 03:30N 26°06' W 080°07'0 0.0
2018-Jun-13 03:00N 26°06' W 080°07'0 0.5
2018-Jun-13 02:30N 26°06' W 080°07'0 0.6
2018-Jun-13 02:00N 26°06' W 080°07'1 1.2
2018-Jun-13 01:31N 26°05' W 080°07'0 0.9
2018-Jun-13 01:00N 26°05' W 080°07'0 0.1
2018-Jun-13 00:30N 26°06' W 080°07'0 0.2
2018-Jun-13 00:00N 26°05' W 080°07'2 4.1
2018-Jun-12 23:30N 26°05' W 080°05'2 4.1
2018-Jun-12 23:01N 26°05' W 080°07'1 1.7
2018-Jun-12 22:31N 26°05' W 080°07'1 1.5
2018-Jun-12 22:00N 26°05' W 080°07'1 1.5
2018-Jun-12 21:30N 26°06' W 080°07'0 0.0
2018-Jun-12 21:00N 26°06' W 080°07'1 1.6
2018-Jun-12 20:31N 26°05' W 080°07'4 8.3
2018-Jun-12 20:00N 26°05' W 080°02'4 8.0
2018-Jun-12 19:30N 26°05' W 080°07'1 1.6
2018-Jun-12 19:00N 26°06' W 080°07'0 0.6
2018-Jun-12 18:30N 26°06' W 080°07'0 0.0
2018-Jun-12 18:00N 26°06' W 080°07'0 0.0
2018-Jun-12 17:30N 26°06' W 080°07'0 0.0
2018-Jun-12 17:00N 26°06' W 080°07'0 0.0
2018-Jun-12 16:30N 26°06' W 080°07'0 0.0
2018-Jun-12 16:00N 26°06' W 080°07'0 0.0
2018-Jun-12 15:26N 26°06' W 080°07'0 0.0
2018-Jun-12 14:59N 26°06' W 080°07'0 0.0
2018-Jun-12 14:28N 26°06' W 080°07'0 0.0
2018-Jun-12 14:00N 26°06' W 080°07'0 0.0
2018-Jun-12 13:30N 26°06' W 080°07'0 0.0
2018-Jun-12 13:00N 26°06' W 080°07'0 0.0
2018-Jun-12 12:30N 26°06' W 080°07'0 0.0
2018-Jun-12 12:00N 26°06' W 080°07'0 0.0
2018-Jun-12 11:30N 26°06' W 080°07'0 0.0
2018-Jun-12 11:00N 26°06' W 080°07'0 0.2
2018-Jun-12 10:30N 26°06' W 080°07'1 2.9
2018-Jun-12 10:00N 26°06' W 080°06'1 2.8
2018-Jun-12 09:30N 26°06' W 080°07'0 0.1
2018-Jun-12 09:00N 26°06' W 080°07'0 0.0
2018-Jun-12 08:30N 26°06' W 080°07'0 0.0
2018-Jun-12 08:00N 26°06' W 080°07'0 0.0
2018-Jun-12 07:30N 26°06' W 080°07'0 0.0
2018-Jun-12 07:00N 26°06' W 080°07'0 0.0
2018-Jun-12 06:30N 26°06' W 080°07'0 0.0
2018-Jun-12 06:00N 26°06' W 080°07'0 0.0
2018-Jun-12 05:29N 26°06' W 080°07'0 0.0
2018-Jun-12 04:47N 26°06' W 080°07'0 0.0
2018-Jun-12 04:30N 26°06' W 080°07'0 0.0
2018-Jun-12 04:00N 26°06' W 080°07'0 0.0
2018-Jun-12 03:29N 26°06' W 080°07'0 0.0
2018-Jun-12 02:58N 26°06' W 080°07'1 1.9
2018-Jun-12 02:30N 26°05' W 080°07'1 1.4
2018-Jun-12 02:01N 26°06' W 080°06'  

Dump ship's entire track history